Flight Track Log - Related Links

Times and Time Zones

All times are in EDT time to prevent confusion due to time zone crossing. See the N32NG flight status page for this flight to view local times or setup timezone preferences in your user account.

Time Position Orientation Groundspeed Altitude Reporting Facility
EDT Latitude Longitude Course Direction KTS MPH feet Rate Location/Type
Mon 02:14:14 PM 38.2667 -104.4833 218° Southwest 177 204 6,600  Level Denver TRACON
Mon 02:17:58 PM 38.3017 -104.6950 280° West 130 150 12,200 1,469 Climbing Denver Center
Mon 02:19:00 PM 38.3122 -104.7553 283° West 169 194 13,600 1,161 Climbing Denver Center
Mon 02:20:02 PM 38.3167 -104.8175 275° West 170 196 14,600 1,161 Climbing Denver Center
Mon 02:21:04 PM 38.3244 -104.8958 277° West 177 204 16,000 1,210 Climbing Denver Center
Mon 02:22:06 PM 38.3292 -104.9614 275° West 181 208 17,100 871 Climbing Denver Center
Mon 02:23:08 PM 38.3344 -105.0244 276° West 181 208 17,800 726 Climbing Denver Center
Mon 02:24:10 PM 38.3397 -105.0911 276° West 181 208 18,600 919 Climbing Denver Center
Mon 02:25:12 PM 38.3439 -105.1583 275° West 185 213 19,700 337 Climbing Denver Center
Mon 02:28:19 PM 38.3533 -105.4014 280° West 220 253 20,000 72 Climbing Denver Center
Mon 02:29:21 PM 38.3372 -105.4836 256° West 236 272 20,000  Level Denver Center
Mon 02:30:23 PM 38.3222 -105.5661 257° West 236 272 20,000  Level Denver Center
Mon 02:31:25 PM 38.3064 -105.6475 256° West 236 272 20,000  Level Denver Center
Mon 02:32:27 PM 38.2900 -105.7306 256° West 237 273 20,000  Level Denver Center
Mon 02:33:29 PM 38.2850 -105.8317 266° West 237 273 20,000  Level Denver Center
Mon 02:34:31 PM 38.2831 -105.9183 268° West 237 273 20,000  Level Denver Center
Mon 02:35:33 PM 38.2789 -106.0042 266° West 239 275 20,000  Level Denver Center
Mon 02:37:37 PM 38.2667 -106.1828 245° Southwest 243 280 20,000  Level Denver Center
Mon 02:38:39 PM 38.2578 -106.2644 262° West 238 274 20,000  Level Denver Center
Mon 02:39:41 PM 38.2433 -106.3444 257° West 235 270 20,000  Level Denver Center
Mon 02:40:44 PM 38.2153 -106.4194 245° Southwest 232 267 20,000  Level Denver Center
Mon 02:41:46 PM 38.1808 -106.5058 243° Southwest 232 267 20,000 532 Level Denver Center
Mon 02:42:48 PM 38.1500 -106.5722 239° Southwest 225 259 21,100 968 Climbing Denver Center
Mon 02:43:50 PM 38.1272 -106.6242 241° Southwest 177 204 22,000 258 Climbing Denver Center
Mon 02:45:54 PM 38.0972 -106.7708 257° West 217 250 21,900  Descending Denver Center
Mon 02:46:56 PM 38.0800 -106.8503 255° West 229 264 22,000 1,016 Climbing Denver Center
Mon 02:47:58 PM 38.0653 -106.9297 257° West 197 227 24,000 968 Climbing Denver Center
Mon 02:49:00 PM 38.0497 -106.9878 251° West 184 212 24,000  Level Denver Center
Mon 02:50:02 PM 38.0336 -107.0719 256° West 210 242 24,000  Level Denver Center
Mon 02:51:04 PM 38.0178 -107.1450 255° West 218 251 24,000  Level Denver Center
Mon 02:53:08 PM 37.9839 -107.3056 255° West 226 260 24,000  Level Denver Center
Mon 02:54:10 PM 37.9644 -107.3939 254° West 230 265 24,000  Level Denver Center
Mon 02:55:12 PM 37.9378 -107.4656 245° Southwest 235 270 24,000  Level Denver Center
Mon 02:56:14 PM 37.9056 -107.5467 243° Southwest 234 269 24,000  Level Denver Center
Mon 02:57:16 PM 37.8867 -107.6169 251° West 228 262 24,000  Level Denver Center
Mon 02:58:18 PM 37.8717 -107.6914 256° West 228 262 24,000  Level Denver Center
Mon 02:59:20 PM 37.8528 -107.7717 253° West 220 253 24,000  Level Denver Center
Mon 03:00:22 PM 37.8372 -107.8447 255° West 220 253 24,000  Level Denver Center
Mon 03:01:24 PM 37.8186 -107.9267 254° West 220 253 24,000  Level Denver Center
Mon 03:02:26 PM 37.8039 -107.9978 255° West 220 253 24,000  Level Denver Center
Mon 03:03:28 PM 37.7847 -108.0828 254° West 225 259 24,000  Level Denver Center
Mon 03:04:30 PM 37.7692 -108.1553 255° West 225 259 24,000  Level Denver Center
Mon 03:06:34 PM 37.7333 -108.3119 255° West 224 258 24,000  Level Denver Center
Mon 03:07:36 PM 37.7142 -108.3961 254° West 225 259 24,000  Level Denver Center
Mon 03:08:38 PM 37.6986 -108.4689 255° West 224 258 24,000  Level Denver Center
Mon 03:09:40 PM 37.6800 -108.5492 254° West 220 253 24,000  Level Denver Center
Mon 03:10:42 PM 37.6633 -108.6264 255° West 228 262 24,000  Level Denver Center
Mon 03:11:44 PM 37.6436 -108.7136 254° West 228 262 24,000 -258 Level Denver Center
Mon 03:13:00 PM 37.6210 -108.8127 254° West  Level Estimated
Mon 03:13:48 PM 37.6039 -108.8814 254° West 241 277 23,200  Level Denver Center
Mon 03:14:50 PM 37.5850 -108.9647 254° West 253 291 22,800 -484 Descending Denver Center
Mon 03:15:52 PM 37.5617 -109.0642 254° West 261 300 22,200 -532 Descending Denver Center
Mon 03:16:54 PM 37.5422 -109.1506 254° West 266 306 21,700 -484 Descending Denver Center
Mon 03:17:56 PM 37.5222 -109.2372 254° West 268 308 21,200 -464 Descending Denver Center
Mon 03:19:55 PM 37.4853 -109.4144 254° West 268 308 20,300 -398 Descending Los Angeles Center
Mon 03:20:57 PM 37.4597 -109.5225 253° West 268 308 20,000 -145 Descending Los Angeles Center
Mon 03:21:59 PM 37.4389 -109.6083 253° West 266 306 20,000  Level Los Angeles Center
Mon 03:23:06 PM 37.4131 -109.7019 251° West 255 293 20,000  Level Denver Center
Mon 03:24:08 PM 37.3933 -109.7822 253° West 254 292 20,000  Level Denver Center
Mon 03:25:10 PM 37.3731 -109.8728 254° West 248 285 20,000  Level Denver Center
Mon 03:26:12 PM 37.3531 -109.9536 253° West 248 285 20,000  Level Denver Center
Mon 03:27:14 PM 37.3308 -110.0450 253° West 248 285 20,000  Level Denver Center
Mon 03:29:15 PM 37.2956 -110.2047 255° West 249 287 20,000 -24 Level Los Angeles Center
Mon 03:31:19 PM 37.2556 -110.3692 253° West 248 285 19,900 -225 Descending Los Angeles Center
Mon 03:32:22 PM 37.2289 -110.4714 252° West 250 288 19,300 -516 Descending Los Angeles Center
Mon 03:33:27 PM 37.2064 -110.5603 252° West 260 299 18,800 -472 Descending Denver Center
Mon 03:34:29 PM 37.1847 -110.6467 253° West 261 300 18,300 -387 Descending Denver Center
Mon 03:35:31 PM 37.1639 -110.7336 253° West 261 300 18,000 -145 Descending Denver Center
Mon 03:36:33 PM 37.1428 -110.8164 252° West 255 293 18,000  Level Denver Center
Mon 03:38:37 PM 37.0981 -110.9950 252° West 248 285 18,000  Level Denver Center
Mon 03:39:39 PM 37.0786 -111.0739 253° West 245 282 18,000  Level Denver Center
Mon 03:40:41 PM 37.0586 -111.1528 252° West 242 278 18,000  Level Denver Center
Mon 03:41:43 PM 37.0392 -111.2314 253° West 241 277 18,000  Level Denver Center
Mon 03:42:45 PM 37.0186 -111.3108 252° West 241 277 18,000  Level Denver Center
Mon 03:43:47 PM 36.9939 -111.4072 252° West 241 277 18,000  Level Denver Center
Mon 03:44:49 PM 36.9739 -111.4861 252° West 241 277 18,000  Level Denver Center
Mon 03:45:51 PM 36.9525 -111.5667 252° West 241 277 18,000  Level Denver Center
Mon 03:46:53 PM 36.9311 -111.6486 252° West 240 276 18,000  Level Los Angeles Center
Mon 03:48:57 PM 36.8889 -111.8094 252° West 243 280 18,000 -65 Level Los Angeles Center
Mon 03:49:59 PM 36.8647 -111.9061 253° West 243 280 17,800 -288 Descending Los Angeles Center
Mon 03:51:02 PM 36.8422 -111.9894 251° West 249 287 17,400 -432 Descending Los Angeles Center
Mon 03:52:04 PM 36.8200 -112.0739 252° West 252 290 16,900 -484 Descending Los Angeles Center
Mon 03:53:06 PM 36.7981 -112.1603 252° West 258 297 16,400 -435 Descending Los Angeles Center
Mon 03:54:08 PM 36.7753 -112.2464 252° West 259 298 16,000 -128 Descending Los Angeles Center
Mon 03:56:13 PM 36.7275 -112.4261 252° West 247 284 16,000  Level Los Angeles Center
Mon 03:57:15 PM 36.7058 -112.5064 251° West 246 283 16,000  Level Los Angeles Center
Mon 03:58:17 PM 36.6856 -112.5850 252° West 239 275 16,000  Level Los Angeles Center
Mon 03:59:20 PM 36.6642 -112.6653 252° West 240 276 16,000  Level Los Angeles Center
Mon 04:00:22 PM 36.6428 -112.7425 251° West 239 275 16,000 -65 Level Los Angeles Center
Mon 04:02:26 PM 36.5972 -112.9139 252° West 238 274 15,800 -64 Descending Los Angeles Center
Mon 04:03:29 PM 36.5747 -112.9914 250° West 238 274 15,800  Level Los Angeles Center
Mon 04:04:32 PM 36.5539 -113.0708 252° West 238 274 15,800  Level Los Angeles Center
Mon 04:05:33 PM 36.5333 -113.1500 252° West 239 275 15,800  Level Los Angeles Center
Mon 04:06:36 PM 36.5111 -113.2292 251° West 239 275 15,800  Level Los Angeles Center
Mon 04:07:38 PM 36.4869 -113.3214 252° West 245 282 15,800  Level Los Angeles Center
Mon 04:09:42 PM 36.4431 -113.4775 249° West 244 281 15,800  Level Los Angeles Center
Mon 04:10:44 PM 36.4233 -113.5561 253° West 240 276 15,800  Level Los Angeles Center
Mon 04:11:46 PM 36.3975 -113.6494 251° West 240 276 15,800  Level Los Angeles Center
Mon 04:12:48 PM 36.3764 -113.7267 251° West 240 276 15,800  Level Los Angeles Center
Mon 04:13:51 PM 36.3539 -113.8003 249° West 232 267 15,800 -417 Level Los Angeles Center
Mon 04:15:55 PM 36.3117 -113.9594 250° West 244 281 14,500 -871 Descending Los Angeles Center
Mon 04:16:57 PM 36.2883 -114.0456 251° West 257 296 13,100 -1,452 Descending Los Angeles Center
Mon 04:17:59 PM 36.2600 -114.1461 251° West 260 299 11,500 -1,500 Descending Los Angeles Center
Mon 04:18:25 PM 36.2511 -114.1811 253° West 256 295 10,900 -1,258 Descending Los Angeles Center
Mon 04:19:01 PM 36.2378 -114.2253 249° West 248 285 10,200 -1,200 Descending Los Angeles Center
Mon 04:19:20 PM 36.2311 -114.2550 254° West 239 275 9,800 -387 Descending Los Angeles Center
Mon 04:20:03 PM 36.2156 -114.3011 247° West 237 273 9,800  Level Los Angeles Center
Mon 04:20:21 PM 36.2103 -114.3261 255° West 215 247 9,800  Level Los Angeles Center
Mon 04:21:06 PM 36.1981 -114.3653 249° West 205 236 9,800  Level Los Angeles Center
Mon 04:21:16 PM 36.1894 -114.3786 231° Southwest 191 220 9,800  Level Los Angeles Center
Mon 04:22:08 PM 36.1533 -114.4014 207° Southwest 197 227 9,800  Level Los Angeles Center
Mon 04:22:23 PM 36.1375 -114.4175 219° Southwest 198 228 9,800  Level Los Angeles Center
Mon 04:23:10 PM 36.0992 -114.4181 181° South 216 249 9,800  Level Los Angeles Center
Mon 04:24:12 PM 36.0283 -114.4183 180° South 238 274 9,800  Level Los Angeles Center
Mon 04:24:25 PM 36.0183 -114.4261 212° Southwest 231 266 9,800  Level Los Angeles Center
Mon 04:25:32 PM 35.9722 -114.4817 224° Southwest 220 253 9,800  Level Los Angeles Center
Mon 04:26:17 PM 35.9517 -114.5275 241° Southwest 221 254 9,800  Level Los Angeles Center
Mon 04:26:33 PM 35.9442 -114.5497 247° West 219 252 9,800  Level Los Angeles Center
Mon 04:27:19 PM 35.9275 -114.6003 248° West 225 259 9,800 98 Level Los Angeles Center
Mon 04:27:34 PM 35.9236 -114.6311 261° West 238 274 9,900 160 Climbing Los Angeles Center
Mon 04:28:34 PM 35.9056 -114.7064 254° West 229 264 10,000 55 Climbing Los Angeles Center
Mon 04:29:23 PM 35.8919 -114.7536 250° West 230 265 10,000 -486 Level Los Angeles Center
Mon 04:30:25 PM 35.8686 -114.8444 252° West 233 268 9,100 -960 Descending Los Angeles Center
Mon 04:31:28 PM 35.8536 -114.9108 254° West 218 251 8,000 -768 Descending Los Angeles Center
Mon 04:32:30 PM 35.8383 -114.9800 255° West 199 229 7,500 -605 Descending Los Angeles Center
Mon 04:33:27 PM 35.8461 -115.0447 278° West 207 238 6,800 -774 Descending Los Angeles Center
Mon 04:34:34 PM 35.8958 -115.0903 323° Northwest 208 239 5,900 -1,015 Descending Los Angeles Center
Mon 04:35:37 PM 35.9422 -115.0975 353° North 164 189 4,600 -1,031 Descending Los Angeles Center
Mon 04:36:42 PM 35.9869 -115.0964 North 149 171 3,700 -750 Descending Los Angeles Center
Mon 04:37:37 PM 36.0031 -115.1206 309° West 104 120 3,100 -645 Descending Los Angeles Center
Mon 04:38:43 PM 35.9772 -115.1353 205° Southwest 112 129 2,400 -636 Descending Los Angeles Center

Login

Don't have an account? Register now (free) for customized features, flight alerts, and more!